Kilkenny, Ireland

3:51 PM GMT on January 30, 2015 (GMT +0000)
Kilkenny | Change Station
CLOSE
Current Station
Personal Weather Station
Location: Kilkenny City, Co. Kilkenny
Elevation: 160 ft
Nearby Weather Stations

Elev 160 ft 52.66 °N, 7.25 °W | Updated 9 minutes ago

Scattered Clouds
Scattered Clouds
41.0 °F
Feels Like 38 °F
N
5.0
Wind Variable Wind from NW
Gusts 11.0 mph

Today
High -- | Low -- °F
--% Chance of Precip.
Yesterday
High -- | Low -- °F
Precip. -- in
8:14 AM 5:10 PM
Waxing Gibbous, 83% visible
Pressure 29.12 in
Visibility 6.2 miles
Clouds Scattered Clouds 3000 ft
Windchill 38 °F
Dew Point 31 °F
Humidity 71%
Rainfall 0.00 in
Snow Depth Not available.
UV 0 out of 12
Pollen Not available.
Air Quality Not available.
Flu Activity Not available.
METAR EIWF 301530Z 33011KT 290V010 9999 SCT030 06/02 Q0986

More Conditions Fewer Conditions

Pressure 29.12 in
Visibility 6.2 miles
Clouds Scattered Clouds 3000 ft
Windchill 38 °F
Dew Point 31 °F
Humidity 71%
Rainfall 0.00 in
Snow Depth Not available.
UV 0 out of 12
Pollen Not available.
Air Quality Not available.
Flu Activity Not available.
METAR EIWF 301530Z 33011KT 290V010 9999 SCT030 06/02 Q0986

More Conditions Fewer Conditions

10-Day Weather Forecast

Almanac

Astronomy

Jan. 30, 2015 Rise Set
Actual Time
Civil Twilight
Nautical Twilight
Astronomical Twilight
Moon
Length of Visible Light
Length of Day
Tomorrow will be .
, % of the Moon is Illuminated

Today's Extremes

Country Highs Country Lows

Community

WunderPhotos

Upload Photos

1,791,791 photos uploaded!

WunderBlogs® & News

Nearby

Air Quality

  Air Quality AQ Index Pollutant
Not available.

Snow Depth

Station Depth Elevation

Earthquake Activity

City Distance Mag. Time & Date
Minimum magnitude displayed is 2.5.

Coastal Water Temperatures

Place Temperature

Nearby Weather Stations